createdAt,value
2022-08-03T00:02:21.237Z,1.42
2022-08-03T00:04:49.940Z,1.38
2022-08-03T00:07:19.085Z,1.98
2022-08-03T00:09:47.624Z,1.35
2022-08-03T00:12:16.566Z,1.38
2022-08-03T00:14:44.807Z,1.40
2022-08-03T00:17:13.635Z,1.40
2022-08-03T00:19:42.194Z,1.52
2022-08-03T00:22:10.570Z,1.30
2022-08-03T00:24:39.338Z,1.25
2022-08-03T00:27:07.887Z,1.10
2022-08-03T00:29:57.409Z,1.40
2022-08-03T00:32:25.352Z,1.20
2022-08-03T00:34:58.638Z,1.02
2022-08-03T00:37:41.186Z,1.08
2022-08-03T00:40:15.092Z,1.20
2022-08-03T00:43:04.596Z,1.10
2022-08-03T00:45:38.950Z,1.00
2022-08-03T00:48:19.595Z,1.20
2022-08-03T00:50:57.706Z,1.27
2022-08-03T00:53:27.217Z,1.10
2022-08-03T00:55:55.926Z,1.00
2022-08-03T00:58:25.518Z,1.20
2022-08-03T01:00:54.384Z,1.20
2022-08-03T01:03:23.027Z,1.38
2022-08-03T01:05:57.670Z,1.35
2022-08-03T01:08:54.743Z,1.30
2022-08-03T01:11:31.086Z,1.50
2022-08-03T01:14:18.554Z,1.40
2022-08-03T01:17:00.973Z,1.60
2022-08-03T01:19:51.677Z,1.77
2022-08-03T01:22:29.009Z,2.00
2022-08-03T01:25:25.172Z,1.83
2022-08-03T01:27:59.954Z,1.58
2022-08-03T01:30:39.245Z,1.70
2022-08-03T01:33:34.577Z,1.98
2022-08-03T01:36:07.131Z,1.90
2022-08-03T01:38:45.275Z,2.15
2022-08-03T01:41:21.685Z,1.70
2022-08-03T01:44:28.686Z,1.75
2022-08-03T01:46:47.686Z,1.80
2022-08-03T01:49:19.611Z,1.90
2022-08-03T01:52:03.654Z,1.77
2022-08-03T01:54:39.013Z,2.10
2022-08-03T01:57:08.972Z,2.08
2022-08-03T01:59:40.249Z,2.20
2022-08-03T02:02:27.649Z,1.92
2022-08-03T02:05:02.398Z,1.70
2022-08-03T02:07:33.497Z,1.97
2022-08-03T02:10:04.203Z,1.90
2022-08-03T02:12:34.349Z,2.10
2022-08-03T02:15:04.662Z,2.13
2022-08-03T02:17:39.229Z,2.25
2022-08-03T02:20:11.413Z,2.17
2022-08-03T02:22:44.728Z,2.70
2022-08-03T02:25:15.829Z,2.28
2022-08-03T02:27:58.017Z,2.53
2022-08-03T02:30:42.849Z,2.10
2022-08-03T02:33:24.499Z,2.10
2022-08-03T02:35:54.377Z,2.25
2022-08-03T02:38:29.767Z,2.10
2022-08-03T02:41:00.479Z,1.98
2022-08-03T02:43:57.648Z,1.92
2022-08-03T02:46:22.596Z,2.33
2022-08-03T02:48:53.665Z,2.08
2022-08-03T02:51:23.865Z,2.20
2022-08-03T02:53:53.710Z,2.33
2022-08-03T02:56:24.205Z,2.30
2022-08-03T02:58:54.905Z,2.40
2022-08-03T03:01:27.114Z,2.22
2022-08-03T03:03:58.998Z,2.40
2022-08-03T03:06:30.206Z,2.50
2022-08-03T03:08:59.869Z,2.60
2022-08-03T03:11:29.971Z,2.30
2022-08-03T03:13:59.486Z,2.20
2022-08-03T03:16:30.907Z,2.40
2022-08-03T03:19:01.653Z,2.38
2022-08-03T03:21:32.488Z,2.53
2022-08-03T03:24:01.482Z,2.60
2022-08-03T03:26:30.838Z,1.90
2022-08-03T03:28:59.664Z,2.15
2022-08-03T03:31:28.542Z,2.25
2022-08-03T03:34:00.006Z,2.28
2022-08-03T03:36:29.041Z,1.90
2022-08-03T03:38:58.627Z,2.03
2022-08-03T03:41:27.615Z,2.15
2022-08-03T03:44:02.756Z,2.50
2022-08-03T03:46:31.642Z,2.17
2022-08-03T03:49:01.423Z,2.33
2022-08-03T03:51:30.167Z,2.45
2022-08-03T03:54:00.433Z,2.63
2022-08-03T03:56:30.330Z,2.70
2022-08-03T03:58:59.275Z,2.78
2022-08-03T04:01:27.879Z,2.70
2022-08-03T04:03:56.515Z,2.67
2022-08-03T04:06:43.759Z,2.80
2022-08-03T04:09:30.869Z,2.88
2022-08-03T04:12:03.214Z,3.08
2022-08-03T04:14:36.941Z,2.80
2022-08-03T04:17:10.858Z,2.67
2022-08-03T04:19:54.170Z,2.60
2022-08-03T04:25:10.800Z,2.70
2022-08-03T04:27:42.097Z,2.40
2022-08-03T04:30:11.447Z,2.78
2022-08-03T04:32:45.722Z,2.90
2022-08-03T04:35:14.058Z,3.33
2022-08-03T04:37:49.838Z,3.72
2022-08-03T04:40:31.785Z,3.50
2022-08-03T04:43:01.331Z,3.33
2022-08-03T04:45:31.351Z,2.78
2022-08-03T04:48:02.997Z,3.00
2022-08-03T04:50:32.298Z,2.90
2022-08-03T04:53:01.267Z,3.15
2022-08-03T04:55:32.076Z,2.88
2022-08-03T04:58:01.233Z,3.28
2022-08-03T05:00:30.632Z,3.38
2022-08-03T05:02:59.120Z,3.00
2022-08-03T05:05:34.931Z,3.00
2022-08-03T05:08:16.374Z,3.30
2022-08-03T05:10:49.364Z,3.50
2022-08-03T05:13:18.196Z,2.90
2022-08-03T05:15:47.045Z,3.25
2022-08-03T05:18:15.591Z,3.42
2022-08-03T05:20:43.579Z,3.03
2022-08-03T05:23:12.132Z,3.10
2022-08-03T05:25:40.875Z,2.70
2022-08-03T05:28:18.761Z,3.00
2022-08-03T05:30:47.643Z,3.30
2022-08-03T05:33:16.366Z,3.13
2022-08-03T05:36:01.412Z,3.10
2022-08-03T05:38:34.816Z,2.92
2022-08-03T05:41:22.507Z,3.25
2022-08-03T05:43:56.532Z,3.22
2022-08-03T05:46:25.520Z,3.40
2022-08-03T05:48:54.447Z,2.80
2022-08-03T05:51:22.596Z,3.15
2022-08-03T05:53:50.950Z,3.28
2022-08-03T05:56:23.138Z,2.80
2022-08-03T05:58:52.759Z,3.10
2022-08-03T06:01:23.482Z,3.00
2022-08-03T06:03:53.356Z,3.20
2022-08-03T06:06:22.192Z,2.70
2022-08-03T06:08:51.052Z,3.08
2022-08-03T06:11:19.695Z,2.83
2022-08-03T06:13:48.875Z,3.40
2022-08-03T06:16:17.324Z,3.38
2022-08-03T06:18:47.373Z,3.22
2022-08-03T06:21:17.447Z,3.33
2022-08-03T06:23:54.397Z,3.53
2022-08-03T06:26:26.244Z,3.03
2022-08-03T06:28:56.036Z,3.60
2022-08-03T06:31:32.721Z,3.13
2022-08-03T06:34:33.905Z,3.53
2022-08-03T06:36:52.991Z,3.25
2022-08-03T06:39:23.421Z,3.35
2022-08-03T06:41:53.120Z,3.40
2022-08-03T06:44:21.692Z,3.72
2022-08-03T06:46:50.950Z,3.38
2022-08-03T06:49:20.136Z,3.30
2022-08-03T06:52:03.767Z,3.40
2022-08-03T06:54:35.781Z,3.33
2022-08-03T06:57:05.028Z,3.50
2022-08-03T07:00:09.730Z,3.67
2022-08-03T07:02:22.398Z,3.45
2022-08-03T07:04:50.919Z,3.85
2022-08-03T07:07:20.799Z,3.58
2022-08-03T07:09:56.893Z,4.07
2022-08-03T07:12:27.637Z,3.40
2022-08-03T07:15:00.758Z,3.45
2022-08-03T07:17:32.185Z,3.40
2022-08-03T07:20:01.966Z,3.65
2022-08-03T07:22:30.751Z,4.03
2022-08-03T07:24:59.702Z,3.53
2022-08-03T07:27:29.813Z,4.00
2022-08-03T07:29:59.939Z,3.67
2022-08-03T07:32:29.915Z,3.95
2022-08-03T07:35:01.158Z,3.63
2022-08-03T07:37:31.687Z,3.70
2022-08-03T07:40:01.845Z,3.58
2022-08-03T07:42:31.792Z,3.80
2022-08-03T07:45:01.369Z,3.65
2022-08-03T07:47:35.508Z,3.55
2022-08-03T07:50:05.171Z,3.40
2022-08-03T07:52:54.125Z,3.60
2022-08-03T07:55:24.594Z,3.72
2022-08-03T07:58:08.825Z,3.60
2022-08-03T08:00:38.012Z,3.55
2022-08-03T08:03:06.892Z,3.60
2022-08-03T08:05:36.121Z,3.78
2022-08-03T08:08:05.268Z,3.35
2022-08-03T08:10:34.291Z,3.67
2022-08-03T08:13:03.572Z,3.88
2022-08-03T08:15:33.031Z,3.72
2022-08-03T08:18:03.188Z,3.90
2022-08-03T08:20:34.981Z,4.35
2022-08-03T08:23:37.853Z,3.95
2022-08-03T08:25:57.973Z,4.35
2022-08-03T08:28:30.280Z,3.85
2022-08-03T08:31:02.008Z,3.40
2022-08-03T08:34:02.511Z,3.10
2022-08-03T08:36:20.008Z,3.60
2022-08-03T08:38:48.854Z,3.88
2022-08-03T08:41:17.708Z,4.35
2022-08-03T08:43:46.262Z,4.15
2022-08-03T08:46:23.407Z,3.65
2022-08-03T08:48:54.526Z,4.32
2022-08-03T08:51:54.889Z,3.70
2022-08-03T08:54:22.096Z,3.88
2022-08-03T08:56:55.117Z,4.32
2022-08-03T08:59:25.825Z,3.80
2022-08-03T09:01:59.734Z,3.97
2022-08-03T09:04:32.507Z,3.90
2022-08-03T09:07:19.255Z,3.70
2022-08-03T09:10:10.997Z,3.70
2022-08-03T09:12:46.832Z,4.10
2022-08-03T09:15:22.890Z,4.00
2022-08-03T09:17:52.295Z,3.88
2022-08-03T09:20:22.694Z,4.28
2022-08-03T09:22:59.513Z,4.25
2022-08-03T09:25:43.075Z,4.00
2022-08-03T09:28:14.473Z,4.20
2022-08-03T09:31:03.050Z,4.00
2022-08-03T09:33:35.978Z,4.90
2022-08-03T09:36:04.871Z,4.43
2022-08-03T09:38:33.473Z,4.13
2022-08-03T09:41:02.079Z,4.45
2022-08-03T09:43:46.862Z,4.40
2022-08-03T09:46:15.438Z,3.75
2022-08-03T09:48:43.977Z,3.65
2022-08-03T09:52:29.526Z,4.10
2022-08-03T09:54:09.568Z,3.88
2022-08-03T09:56:49.565Z,3.67
2022-08-03T09:59:32.184Z,3.60
2022-08-03T10:02:03.123Z,4.53
2022-08-03T10:04:31.846Z,3.65
2022-08-03T10:07:19.066Z,4.15
2022-08-03T10:09:57.238Z,3.75
2022-08-03T10:12:26.765Z,3.97
2022-08-03T10:14:57.274Z,3.65
2022-08-03T10:17:25.930Z,3.80
2022-08-03T10:19:54.545Z,3.65
2022-08-03T10:22:33.529Z,3.47
2022-08-03T10:25:08.364Z,3.75
2022-08-03T10:27:40.881Z,3.40
2022-08-03T10:30:11.957Z,3.55
2022-08-03T10:32:45.097Z,3.75
2022-08-03T10:38:11.577Z,3.70
2022-08-03T10:40:51.043Z,3.55
2022-08-03T10:43:35.507Z,3.30
2022-08-03T10:46:07.779Z,3.38
2022-08-03T10:48:38.134Z,3.22
2022-08-03T10:51:08.074Z,3.70
2022-08-03T10:53:39.016Z,3.80
2022-08-03T10:56:47.270Z,3.13
2022-08-03T10:59:27.545Z,3.63
2022-08-03T11:02:00.656Z,3.40
2022-08-03T11:04:30.882Z,3.60
2022-08-03T11:07:24.218Z,3.28
2022-08-03T11:09:57.908Z,3.33
2022-08-03T11:12:31.081Z,3.20
2022-08-03T11:15:08.262Z,3.45
2022-08-03T11:17:46.270Z,3.70
2022-08-03T11:20:48.409Z,3.70
2022-08-03T11:23:18.804Z,3.58
2022-08-03T11:26:11.910Z,3.70
2022-08-03T11:34:16.485Z,3.83
2022-08-03T11:37:24.627Z,3.60
2022-08-03T11:39:56.710Z,4.40
2022-08-03T11:42:25.405Z,3.67
2022-08-03T11:44:56.489Z,3.10
2022-08-03T11:47:28.265Z,3.53
2022-08-03T11:50:00.482Z,3.75
2022-08-03T11:52:35.458Z,3.30
2022-08-03T11:55:04.467Z,3.50
2022-08-03T11:59:10.935Z,3.42
2022-08-03T12:00:32.172Z,3.88
2022-08-03T12:03:07.418Z,3.75
2022-08-03T12:05:52.323Z,3.22
2022-08-03T12:08:29.911Z,3.15
2022-08-03T12:11:00.507Z,3.40
2022-08-03T12:14:44.262Z,3.85
2022-08-03T12:16:27.539Z,3.17
2022-08-03T12:19:00.018Z,3.05
2022-08-03T12:21:29.481Z,3.05
2022-08-03T12:24:01.136Z,3.17
2022-08-03T12:26:31.432Z,3.45
2022-08-03T12:28:59.912Z,3.65
2022-08-03T12:31:28.333Z,3.30
2022-08-03T12:33:56.813Z,3.40
2022-08-03T12:36:25.609Z,3.20
2022-08-03T12:38:59.037Z,3.10
2022-08-03T12:41:34.777Z,3.30
2022-08-03T12:44:08.141Z,3.13
2022-08-03T12:46:47.776Z,3.20
2022-08-03T12:49:20.899Z,2.88
2022-08-03T12:51:49.450Z,3.00
2022-08-03T12:54:24.772Z,3.10
2022-08-03T12:57:09.301Z,3.20
2022-08-03T12:59:45.197Z,2.90
2022-08-03T13:02:27.499Z,2.83
2022-08-03T13:04:56.600Z,2.75
2022-08-03T13:07:25.224Z,3.10
2022-08-03T13:09:55.971Z,3.13
2022-08-03T13:12:27.125Z,3.00
2022-08-03T13:15:02.761Z,2.65
2022-08-03T13:17:30.703Z,3.08
2022-08-03T13:19:58.750Z,2.88
2022-08-03T13:22:31.519Z,2.83
2022-08-03T13:25:00.987Z,2.85
2022-08-03T13:28:12.330Z,2.58
2022-08-03T13:30:30.198Z,2.70
2022-08-03T13:33:00.783Z,2.78
2022-08-03T13:35:28.908Z,2.75
2022-08-03T13:37:56.914Z,2.80
2022-08-03T13:40:30.142Z,2.78
2022-08-03T13:42:58.759Z,2.63
2022-08-03T13:45:28.175Z,2.70
2022-08-03T13:47:58.656Z,2.50
2022-08-03T13:50:27.632Z,2.58
2022-08-03T13:52:56.237Z,3.08
2022-08-03T13:55:25.712Z,2.45
2022-08-03T13:58:06.049Z,2.72
2022-08-03T14:00:35.890Z,3.10
2022-08-03T14:03:12.822Z,3.00
2022-08-03T14:05:43.462Z,3.38
2022-08-03T14:08:12.598Z,2.70
2022-08-03T14:10:44.144Z,3.00
2022-08-03T14:13:17.849Z,3.10
2022-08-03T14:15:49.776Z,2.70
2022-08-03T14:18:29.208Z,3.20
2022-08-03T14:21:06.617Z,3.30
2022-08-03T14:23:37.332Z,3.17
2022-08-03T14:26:07.811Z,3.00
2022-08-03T14:28:36.978Z,3.05
2022-08-03T14:31:08.295Z,3.72
2022-08-03T14:33:43.907Z,3.38
2022-08-03T14:36:12.578Z,3.45
2022-08-03T14:38:41.173Z,3.03
2022-08-03T14:41:12.065Z,3.20
2022-08-03T14:44:01.222Z,3.00
2022-08-03T14:46:31.378Z,3.03
2022-08-03T14:50:28.894Z,3.28
2022-08-03T14:51:51.525Z,3.05
2022-08-03T14:54:23.370Z,3.08
2022-08-03T14:56:52.948Z,3.13
2022-08-03T14:59:21.550Z,3.10
2022-08-03T15:02:03.240Z,3.00
2022-08-03T15:04:35.158Z,3.45
2022-08-03T15:07:04.131Z,2.97
2022-08-03T15:09:32.867Z,3.20
2022-08-03T15:12:01.608Z,3.28
2022-08-03T15:14:33.459Z,3.58
2022-08-03T15:17:03.364Z,3.13
2022-08-03T15:20:03.567Z,2.85
2022-08-03T15:22:24.985Z,2.80
2022-08-03T15:26:28.200Z,3.00
2022-08-03T15:28:04.000Z,3.67
2022-08-03T15:30:37.265Z,3.22
2022-08-03T15:33:06.387Z,3.03
2022-08-03T15:35:35.306Z,2.90
2022-08-03T15:38:08.757Z,3.15
2022-08-03T15:40:38.035Z,3.15
2022-08-03T15:43:06.771Z,2.88
2022-08-03T15:45:36.309Z,2.90
2022-08-03T15:48:07.398Z,2.97
2022-08-03T15:50:36.365Z,2.88
2022-08-03T15:53:05.419Z,3.97
2022-08-03T15:55:33.846Z,3.85
2022-08-03T15:59:04.204Z,3.58
2022-08-03T16:00:51.876Z,3.55
2022-08-03T16:03:20.532Z,3.42
2022-08-03T16:05:49.144Z,3.17
2022-08-03T16:08:17.874Z,2.90
2022-08-03T16:10:48.551Z,3.30
2022-08-03T16:13:19.281Z,3.13
2022-08-03T16:15:49.290Z,3.65
2022-08-03T16:18:18.411Z,3.28
2022-08-03T16:20:47.803Z,3.22
2022-08-03T16:23:20.081Z,3.75
2022-08-03T16:25:49.128Z,3.10
2022-08-03T16:28:19.036Z,3.25
2022-08-03T16:30:48.887Z,3.60
2022-08-03T16:33:18.282Z,3.22
2022-08-03T16:35:48.305Z,3.13
2022-08-03T16:38:19.392Z,3.38
2022-08-03T16:40:53.016Z,3.35
2022-08-03T16:43:23.659Z,3.20
2022-08-03T16:45:53.234Z,3.20
2022-08-03T16:48:21.971Z,3.35
2022-08-03T16:50:50.652Z,3.35
2022-08-03T16:53:33.657Z,3.20
2022-08-03T16:56:10.548Z,3.65
2022-08-03T16:58:42.154Z,3.95
2022-08-03T17:01:21.445Z,4.60
2022-08-03T17:04:04.739Z,4.03
2022-08-03T17:06:44.647Z,4.55
2022-08-03T17:09:20.601Z,3.45
2022-08-03T17:11:52.049Z,3.53
2022-08-03T17:14:29.254Z,3.30
2022-08-03T17:17:02.339Z,2.90
2022-08-03T17:19:33.553Z,3.22
2022-08-03T17:22:05.723Z,2.85
2022-08-03T17:24:35.686Z,2.90
2022-08-03T17:28:41.690Z,3.10
2022-08-03T17:30:12.006Z,2.88
2022-08-03T17:32:56.665Z,2.92
2022-08-03T17:35:36.535Z,2.78
2022-08-03T17:38:11.925Z,2.60
2022-08-03T17:40:50.045Z,2.88
2022-08-03T17:44:13.313Z,3.30
2022-08-03T17:46:10.858Z,2.80
2022-08-03T17:48:41.405Z,2.40
2022-08-03T17:51:46.265Z,2.65
2022-08-03T17:54:27.060Z,2.70
2022-08-03T17:57:22.573Z,2.65
2022-08-03T18:00:28.420Z,2.17
2022-08-03T18:03:20.666Z,2.55
2022-08-03T18:06:11.789Z,2.88
2022-08-03T18:08:48.142Z,2.60
2022-08-03T18:11:24.143Z,2.50
2022-08-03T18:14:26.934Z,2.90
2022-08-03T18:17:02.802Z,2.15
2022-08-03T18:20:01.438Z,2.80
2022-08-03T18:22:30.529Z,2.53
2022-08-03T18:25:01.518Z,2.67
2022-08-03T18:27:45.475Z,3.00
2022-08-03T18:30:16.621Z,2.50
2022-08-03T18:33:01.032Z,2.90
2022-08-03T18:35:53.882Z,2.50
2022-08-03T18:38:19.122Z,2.60
2022-08-03T18:40:50.157Z,2.53
2022-08-03T18:43:21.765Z,2.50
2022-08-03T18:46:22.579Z,2.78
2022-08-03T18:49:11.297Z,3.40
2022-08-03T18:51:43.297Z,2.90
2022-08-03T18:54:45.536Z,2.72
2022-08-03T18:57:30.340Z,3.15
2022-08-03T19:00:14.010Z,3.03
2022-08-03T19:02:50.802Z,2.80
2022-08-03T19:05:24.611Z,2.72
2022-08-03T19:08:38.511Z,2.85
2022-08-03T19:11:11.632Z,2.85
2022-08-03T19:13:50.771Z,2.80
2022-08-03T19:16:34.352Z,2.85
2022-08-03T19:19:03.963Z,2.78
2022-08-03T19:21:36.505Z,2.65
2022-08-03T19:24:10.350Z,2.42
2022-08-03T19:26:40.963Z,8.77
2022-08-03T19:29:14.999Z,3.00
2022-08-03T19:31:58.692Z,2.65
2022-08-03T19:34:31.117Z,2.70
2022-08-03T19:37:00.273Z,2.83
2022-08-03T19:39:28.969Z,3.03
2022-08-03T19:42:20.146Z,3.00
2022-08-03T19:44:56.741Z,3.08
2022-08-03T19:48:09.692Z,2.83
2022-08-03T19:50:44.657Z,2.55
2022-08-03T19:53:14.816Z,2.70
2022-08-03T19:55:47.568Z,2.70
2022-08-03T19:58:28.569Z,2.80
2022-08-03T20:00:57.971Z,2.88
2022-08-03T20:03:42.935Z,3.03
2022-08-03T20:06:17.034Z,3.30
2022-08-03T20:08:45.816Z,3.20
2022-08-03T20:11:20.180Z,2.97
2022-08-03T20:13:59.474Z,2.80
2022-08-03T20:16:28.357Z,2.75
2022-08-03T20:18:57.393Z,2.65
2022-08-03T20:21:31.409Z,3.10
2022-08-03T20:24:23.687Z,2.88
2022-08-03T20:26:55.206Z,2.67
2022-08-03T20:30:07.125Z,2.78
2022-08-03T20:32:37.019Z,2.90
2022-08-03T20:35:09.975Z,2.92
2022-08-03T20:37:40.736Z,2.85
2022-08-03T20:40:10.985Z,2.80
2022-08-03T20:42:39.977Z,2.75
2022-08-03T20:45:15.207Z,2.80
2022-08-03T20:47:58.517Z,2.65
2022-08-03T20:50:28.307Z,3.42
2022-08-03T20:52:57.232Z,2.42
2022-08-03T20:55:48.146Z,2.67
2022-08-03T20:58:15.197Z,2.85
2022-08-03T21:00:44.085Z,3.00
2022-08-03T21:03:12.768Z,2.88
2022-08-03T21:05:51.775Z,2.95
2022-08-03T21:08:24.208Z,2.60
2022-08-03T21:10:54.730Z,2.60
2022-08-03T21:14:03.721Z,2.80
2022-08-03T21:16:38.695Z,4.22
2022-08-03T21:19:07.421Z,2.85
2022-08-03T21:21:39.843Z,2.85
2022-08-03T21:24:12.825Z,3.00
2022-08-03T21:26:42.452Z,2.90
2022-08-03T21:29:15.758Z,2.70
2022-08-03T21:31:45.197Z,3.47
2022-08-03T21:34:13.972Z,2.85
2022-08-03T21:36:43.307Z,3.10
2022-08-03T21:39:13.034Z,3.20
2022-08-03T21:41:42.513Z,3.00
2022-08-03T21:44:11.144Z,3.33
2022-08-03T21:46:42.794Z,3.28
2022-08-03T21:50:07.378Z,3.15
2022-08-03T21:52:07.277Z,3.22
2022-08-03T21:54:42.710Z,3.22
2022-08-03T21:57:19.890Z,3.72
2022-08-03T21:59:55.662Z,3.50
2022-08-03T22:02:31.328Z,3.08
2022-08-03T22:05:04.838Z,3.53
2022-08-03T22:07:35.629Z,3.83
2022-08-03T22:10:07.040Z,3.88
2022-08-03T22:12:36.431Z,4.03
2022-08-03T22:15:09.428Z,3.88
2022-08-03T22:17:54.553Z,3.92
2022-08-03T22:20:26.558Z,3.85
2022-08-03T22:22:58.022Z,3.80
2022-08-03T22:25:29.707Z,3.72
2022-08-03T22:28:01.550Z,4.50
2022-08-03T22:30:30.852Z,4.25
2022-08-03T22:33:00.944Z,4.78
2022-08-03T22:35:30.485Z,4.82
2022-08-03T22:37:59.723Z,4.68
2022-08-03T22:40:29.424Z,4.70
2022-08-03T22:42:58.320Z,4.03
2022-08-03T22:46:08.835Z,4.88
2022-08-03T22:48:19.149Z,4.05
2022-08-03T22:50:48.024Z,4.13
2022-08-03T22:53:21.975Z,4.22
2022-08-03T22:55:51.607Z,4.00
2022-08-03T22:58:24.332Z,4.05
2022-08-03T23:04:00.228Z,3.50
2022-08-03T23:06:28.846Z,3.55
2022-08-03T23:08:57.544Z,3.55
2022-08-03T23:11:27.239Z,3.58
2022-08-03T23:14:00.333Z,3.75
2022-08-03T23:16:33.903Z,3.50
2022-08-03T23:19:16.583Z,3.22
2022-08-03T23:21:53.380Z,3.85
2022-08-03T23:24:30.831Z,4.00
2022-08-03T23:27:00.396Z,4.68
2022-08-03T23:29:31.378Z,4.03
2022-08-03T23:32:02.572Z,4.03
2022-08-03T23:34:51.651Z,3.40
2022-08-03T23:37:21.662Z,3.38
2022-08-03T23:39:51.027Z,4.22
2022-08-03T23:42:21.753Z,2.97
2022-08-03T23:44:55.619Z,3.00
2022-08-03T23:47:24.651Z,2.40
2022-08-03T23:50:13.966Z,2.65
2022-08-03T23:53:14.985Z,2.95
2022-08-03T23:55:52.433Z,3.20
2022-08-03T23:58:21.078Z,3.33
